createdAt,value
2019-02-08T00:00:12.366Z,3.10
2019-02-08T00:02:44.270Z,3.00
2019-02-08T00:05:16.128Z,2.70
2019-02-08T00:07:48.259Z,2.50
2019-02-08T00:10:20.367Z,2.30
2019-02-08T00:12:52.379Z,2.20
2019-02-08T00:15:24.504Z,2.30
2019-02-08T00:17:56.812Z,2.30
2019-02-08T00:20:28.695Z,2.30
2019-02-08T00:23:01.663Z,2.60
2019-02-08T00:25:33.527Z,2.70
2019-02-08T00:28:06.054Z,2.90
2019-02-08T00:30:37.932Z,3.10
2019-02-08T00:33:09.825Z,3.20
2019-02-08T00:35:41.735Z,3.20
2019-02-08T00:38:13.620Z,3.00
2019-02-08T00:40:45.716Z,3.00
2019-02-08T00:43:17.591Z,3.00
2019-02-08T00:45:49.491Z,3.00
2019-02-08T00:48:21.364Z,3.10
2019-02-08T00:50:53.282Z,3.00
2019-02-08T00:53:25.338Z,3.00
2019-02-08T00:55:57.988Z,3.10
2019-02-08T00:58:29.861Z,3.00
2019-02-08T01:01:01.853Z,3.00
2019-02-08T01:03:33.764Z,3.00
2019-02-08T01:06:06.338Z,3.20
2019-02-08T01:08:38.208Z,3.30
2019-02-08T01:11:10.119Z,3.30
2019-02-08T01:13:41.988Z,3.40
2019-02-08T01:16:13.890Z,3.40
2019-02-08T01:18:45.886Z,3.40
2019-02-08T01:21:17.807Z,3.40
2019-02-08T01:23:49.753Z,3.30
2019-02-08T01:26:21.667Z,3.30
2019-02-08T01:28:53.533Z,3.40
2019-02-08T01:31:25.609Z,3.50
2019-02-08T01:33:57.471Z,3.60
2019-02-08T01:36:29.373Z,3.60
2019-02-08T01:39:01.616Z,3.70
2019-02-08T01:41:33.521Z,3.70
2019-02-08T01:44:05.411Z,3.60
2019-02-08T01:46:37.317Z,3.60
2019-02-08T01:49:09.189Z,3.50
2019-02-08T01:51:44.495Z,3.50
2019-02-08T01:54:16.254Z,3.40
2019-02-08T01:56:48.328Z,3.20
2019-02-08T01:59:20.204Z,3.10
2019-02-08T02:01:52.114Z,3.00
2019-02-08T02:04:24.021Z,2.80
2019-02-08T02:06:55.924Z,2.80
2019-02-08T02:09:27.801Z,2.80
2019-02-08T02:12:00.812Z,2.90
2019-02-08T02:14:33.311Z,2.90
2019-02-08T02:17:05.220Z,2.90
2019-02-08T02:19:37.098Z,2.80
2019-02-08T02:22:08.998Z,2.80
2019-02-08T02:24:40.883Z,2.70
2019-02-08T02:27:12.780Z,2.70
2019-02-08T02:29:44.660Z,2.70
2019-02-08T02:32:16.563Z,2.70
2019-02-08T02:34:48.442Z,2.80
2019-02-08T02:37:20.348Z,2.90
2019-02-08T02:39:52.222Z,2.90
2019-02-08T02:42:24.120Z,3.00
2019-02-08T02:44:55.995Z,2.80
2019-02-08T02:47:27.894Z,2.70
2019-02-08T02:49:59.783Z,2.70
2019-02-08T02:52:31.674Z,2.80
2019-02-08T02:55:03.560Z,2.90
2019-02-08T02:57:35.457Z,2.90
2019-02-08T03:00:22.393Z,2.90
2019-02-08T03:02:54.721Z,2.80
2019-02-08T03:05:26.629Z,2.80
2019-02-08T03:07:58.954Z,2.90
2019-02-08T03:10:30.928Z,2.90
2019-02-08T03:13:02.819Z,3.00
2019-02-08T03:15:34.804Z,3.10
2019-02-08T03:18:07.340Z,3.00
2019-02-08T03:20:39.460Z,3.00
2019-02-08T03:23:11.367Z,3.10
2019-02-08T03:25:43.344Z,3.00
2019-02-08T03:28:15.640Z,2.90
2019-02-08T03:30:58.481Z,3.10
2019-02-08T03:33:30.371Z,3.10
2019-02-08T03:36:02.257Z,3.20
2019-02-08T03:38:34.156Z,3.20
2019-02-08T03:41:06.148Z,3.00
2019-02-08T03:43:38.073Z,2.90
2019-02-08T03:46:09.939Z,2.90
2019-02-08T03:48:42.344Z,2.90
2019-02-08T03:51:14.216Z,2.90
2019-02-08T03:53:46.113Z,2.90
2019-02-08T03:56:18.140Z,2.90
2019-02-08T03:58:50.045Z,2.90
2019-02-08T04:01:21.966Z,2.80
2019-02-08T04:03:53.867Z,2.80
2019-02-08T04:06:25.744Z,2.70
2019-02-08T04:08:57.645Z,2.80
2019-02-08T04:11:29.506Z,2.80
2019-02-08T04:14:01.499Z,2.90
2019-02-08T04:16:33.680Z,2.90
2019-02-08T04:19:05.683Z,3.00
2019-02-08T04:21:37.550Z,3.00
2019-02-08T04:24:09.446Z,3.20
2019-02-08T04:26:41.335Z,3.30
2019-02-08T04:29:13.238Z,3.20
2019-02-08T04:31:45.108Z,3.30
2019-02-08T04:34:17.009Z,3.30
2019-02-08T04:36:48.891Z,3.20
2019-02-08T04:39:20.783Z,3.20
2019-02-08T04:41:52.654Z,3.10
2019-02-08T04:44:24.554Z,3.10
2019-02-08T04:46:56.419Z,3.00
2019-02-08T04:49:28.328Z,3.00
2019-02-08T04:52:00.199Z,3.10
2019-02-08T04:54:38.215Z,3.10
2019-02-08T04:57:05.712Z,3.10
2019-02-08T04:59:37.617Z,3.20
2019-02-08T05:02:09.476Z,3.30
2019-02-08T05:04:41.369Z,3.40
2019-02-08T05:07:13.317Z,3.60
2019-02-08T05:09:45.202Z,3.70
2019-02-08T05:12:17.076Z,3.60
2019-02-08T05:14:48.963Z,3.70
2019-02-08T05:17:20.866Z,3.80
2019-02-08T05:19:52.748Z,3.70
2019-02-08T05:22:24.646Z,3.60
2019-02-08T05:24:56.514Z,3.50
2019-02-08T05:27:28.409Z,3.70
2019-02-08T05:30:00.273Z,3.70
2019-02-08T05:32:32.463Z,3.70
2019-02-08T05:35:04.510Z,3.80
2019-02-08T05:37:36.528Z,3.70
2019-02-08T05:40:10.724Z,3.70
2019-02-08T05:42:42.619Z,3.80
2019-02-08T05:45:15.712Z,3.50
2019-02-08T05:47:47.628Z,3.40
2019-02-08T05:50:22.608Z,3.40
2019-02-08T05:52:54.512Z,3.40
2019-02-08T05:55:28.989Z,3.40
2019-02-08T05:58:01.066Z,3.40
2019-02-08T06:01:07.393Z,3.40
2019-02-08T06:03:39.343Z,3.40
2019-02-08T06:06:11.198Z,3.30
2019-02-08T06:08:43.110Z,3.20
2019-02-08T06:11:15.043Z,3.00
2019-02-08T06:13:47.140Z,3.00
2019-02-08T06:16:19.923Z,3.10
2019-02-08T06:18:51.838Z,3.00
2019-02-08T06:21:23.703Z,3.10
2019-02-08T06:23:55.625Z,3.20
2019-02-08T06:26:27.481Z,3.10
2019-02-08T06:28:59.392Z,3.10
2019-02-08T06:31:31.261Z,3.20
2019-02-08T06:34:03.237Z,3.20
2019-02-08T06:36:35.176Z,3.30
2019-02-08T06:39:10.226Z,3.20
2019-02-08T06:41:42.111Z,3.30
2019-02-08T06:44:14.018Z,3.30
2019-02-08T06:46:45.905Z,3.20
2019-02-08T06:49:17.837Z,3.20
2019-02-08T06:51:49.817Z,3.20
2019-02-08T06:54:21.724Z,3.20
2019-02-08T06:57:10.362Z,3.20
2019-02-08T06:59:51.536Z,3.20
2019-02-08T07:02:48.150Z,3.20
2019-02-08T07:05:45.125Z,3.20
2019-02-08T07:08:38.941Z,3.10
2019-02-08T07:11:29.769Z,3.20
2019-02-08T07:14:25.722Z,3.20
2019-02-08T07:17:19.278Z,3.00
2019-02-08T07:20:02.515Z,3.10
2019-02-08T07:22:56.205Z,3.10
2019-02-08T07:25:36.254Z,2.90
2019-02-08T07:28:29.817Z,2.80
2019-02-08T07:31:29.514Z,2.80
2019-02-08T07:34:38.773Z,2.80
2019-02-08T07:37:35.489Z,2.70
2019-02-08T07:40:44.173Z,2.80
2019-02-08T07:43:33.164Z,3.00
2019-02-08T07:46:26.799Z,3.30
2019-02-08T07:49:14.873Z,3.60
2019-02-08T07:52:11.647Z,3.70
2019-02-08T07:55:01.042Z,4.00
2019-02-08T07:57:52.034Z,4.10
2019-02-08T08:00:44.577Z,4.30
2019-02-08T08:03:34.083Z,4.50
2019-02-08T08:06:37.551Z,4.60
2019-02-08T08:09:31.045Z,4.70
2019-02-08T08:12:28.014Z,4.90
2019-02-08T08:15:29.016Z,5.00
2019-02-08T08:18:19.947Z,5.10
2019-02-08T08:21:09.727Z,5.30
2019-02-08T08:23:53.907Z,5.50
2019-02-08T08:26:45.859Z,5.60
2019-02-08T08:29:33.770Z,5.70
2019-02-08T08:32:13.858Z,5.80
2019-02-08T08:35:52.874Z,6.10
2019-02-08T08:39:36.959Z,6.20
2019-02-08T08:42:58.208Z,6.20
2019-02-08T08:46:18.937Z,6.50
2019-02-08T08:50:12.187Z,6.70
2019-02-08T08:53:49.186Z,7.10
2019-02-08T08:56:56.562Z,7.80
2019-02-08T09:00:30.718Z,8.60
2019-02-08T09:04:11.178Z,9.20
2019-02-08T09:07:45.673Z,9.90
2019-02-08T09:11:35.711Z,10.70
2019-02-08T09:14:54.194Z,11.10
2019-02-08T09:18:24.135Z,12.10
2019-02-08T09:21:35.185Z,12.60
2019-02-08T09:25:22.463Z,12.80
2019-02-08T09:29:08.640Z,12.60
2019-02-08T09:32:27.687Z,12.50
2019-02-08T09:35:54.979Z,12.80
2019-02-08T09:39:18.124Z,13.00
2019-02-08T09:42:49.361Z,13.90
2019-02-08T09:46:12.970Z,14.50
2019-02-08T09:49:50.210Z,14.90
2019-02-08T09:53:52.751Z,14.70
2019-02-08T09:57:31.295Z,14.60
2019-02-08T10:00:51.000Z,14.90
2019-02-08T10:03:59.840Z,15.80
2019-02-08T10:07:32.223Z,16.50
2019-02-08T10:10:58.198Z,17.00
2019-02-08T10:14:39.031Z,17.10
2019-02-08T10:18:26.127Z,17.00
2019-02-08T10:21:55.045Z,16.80
2019-02-08T10:25:50.340Z,17.40
2019-02-08T10:29:20.072Z,18.20
2019-02-08T10:32:39.893Z,18.40
2019-02-08T10:36:07.284Z,18.50
2019-02-08T10:39:35.337Z,18.50
2019-02-08T10:43:06.436Z,19.10
2019-02-08T10:46:39.882Z,19.60
2019-02-08T10:50:05.917Z,19.60
2019-02-08T10:53:58.414Z,20.10
2019-02-08T10:57:40.492Z,20.80
2019-02-08T11:01:09.972Z,21.00
2019-02-08T11:04:52.249Z,21.80
2019-02-08T11:08:19.812Z,22.20
2019-02-08T11:12:01.573Z,22.40
2019-02-08T11:15:47.870Z,22.60
2019-02-08T11:19:21.438Z,22.80
2019-02-08T11:21:54.541Z,21.80
2019-02-08T11:24:27.624Z,21.40
2019-02-08T11:27:01.373Z,21.10
2019-02-08T11:29:33.287Z,21.60
2019-02-08T11:32:05.155Z,21.90
2019-02-08T11:34:37.066Z,22.60
2019-02-08T11:37:09.129Z,22.60
2019-02-08T11:39:41.033Z,22.80
2019-02-08T11:42:12.905Z,22.80
2019-02-08T11:44:44.906Z,22.50
2019-02-08T11:47:16.812Z,22.30
2019-02-08T11:49:48.709Z,21.80
2019-02-08T11:52:20.625Z,21.60
2019-02-08T11:54:52.539Z,21.60
2019-02-08T11:57:24.473Z,21.40
2019-02-08T11:59:56.379Z,21.70
2019-02-08T12:02:28.326Z,21.80
2019-02-08T12:05:00.255Z,21.40
2019-02-08T12:07:32.097Z,21.50
2019-02-08T12:10:04.816Z,21.30
2019-02-08T12:12:36.697Z,21.60
2019-02-08T12:15:10.187Z,21.80
2019-02-08T12:17:42.909Z,22.20
2019-02-08T12:20:14.931Z,22.40
2019-02-08T12:22:46.893Z,22.10
2019-02-08T12:25:18.822Z,22.50
2019-02-08T12:27:50.684Z,22.70
2019-02-08T12:30:27.583Z,23.30
2019-02-08T12:32:59.524Z,23.80
2019-02-08T12:35:31.609Z,23.90
2019-02-08T12:38:03.465Z,23.60
2019-02-08T12:40:35.358Z,23.00
2019-02-08T12:43:07.494Z,22.60
2019-02-08T12:45:39.426Z,22.60
2019-02-08T12:48:11.566Z,22.70
2019-02-08T12:50:43.532Z,22.60
2019-02-08T12:53:15.428Z,22.20
2019-02-08T12:55:47.359Z,22.10
2019-02-08T12:58:19.264Z,21.80
2019-02-08T13:00:51.341Z,21.10
2019-02-08T13:03:23.243Z,20.70
2019-02-08T13:05:55.117Z,20.50
2019-02-08T13:08:27.011Z,20.70
2019-02-08T13:10:58.898Z,20.70
2019-02-08T13:13:30.812Z,20.40
2019-02-08T13:16:02.683Z,20.80
2019-02-08T13:18:34.592Z,21.30
2019-02-08T13:21:06.668Z,21.20
2019-02-08T13:23:38.617Z,20.90
2019-02-08T13:26:10.584Z,20.80
2019-02-08T13:28:42.498Z,21.00
2019-02-08T13:31:14.448Z,21.50
2019-02-08T13:33:46.348Z,22.00
2019-02-08T13:36:18.234Z,22.70
2019-02-08T13:38:50.160Z,23.10
2019-02-08T13:41:22.179Z,23.30
2019-02-08T13:43:54.266Z,23.60
2019-02-08T13:46:26.141Z,23.10
2019-02-08T13:48:58.100Z,22.90
2019-02-08T13:51:29.996Z,22.90
2019-02-08T13:54:01.894Z,22.60
2019-02-08T13:56:33.761Z,22.00
2019-02-08T13:59:05.678Z,21.60
2019-02-08T14:01:37.557Z,21.10
2019-02-08T14:04:09.461Z,20.40
2019-02-08T14:06:41.332Z,19.30
2019-02-08T14:09:13.331Z,18.70
2019-02-08T14:11:45.276Z,17.70
2019-02-08T14:14:17.325Z,17.00
2019-02-08T14:16:49.204Z,16.40
2019-02-08T14:19:21.104Z,15.60
2019-02-08T14:21:53.319Z,15.10
2019-02-08T14:24:25.212Z,14.50
2019-02-08T14:26:57.194Z,14.20
2019-02-08T14:29:29.101Z,13.90
2019-02-08T14:32:00.977Z,13.40
2019-02-08T14:34:33.243Z,13.10
2019-02-08T14:37:05.100Z,12.70
2019-02-08T14:39:37.020Z,12.50
2019-02-08T14:42:08.898Z,12.40
2019-02-08T14:44:40.882Z,12.20
2019-02-08T14:47:12.841Z,11.80
2019-02-08T14:49:44.763Z,11.70
2019-02-08T14:52:16.772Z,11.40
2019-02-08T14:54:48.697Z,11.10
2019-02-08T14:57:20.584Z,10.90
2019-02-08T14:59:52.482Z,10.60
2019-02-08T15:02:24.438Z,10.60
2019-02-08T15:04:56.443Z,10.60
2019-02-08T15:07:28.326Z,10.50
2019-02-08T15:10:00.261Z,10.40
2019-02-08T15:12:32.119Z,10.40
2019-02-08T15:15:04.040Z,10.40
2019-02-08T15:17:35.925Z,10.40
2019-02-08T15:20:15.948Z,10.40
2019-02-08T15:22:47.894Z,10.30
2019-02-08T15:25:19.917Z,10.30
2019-02-08T15:27:51.799Z,10.30
2019-02-08T15:30:31.142Z,10.20
2019-02-08T15:33:04.602Z,10.00
2019-02-08T15:35:36.823Z,9.70
2019-02-08T15:38:08.757Z,9.60
2019-02-08T15:40:53.121Z,9.40
2019-02-08T15:43:26.387Z,9.30
2019-02-08T15:46:04.687Z,9.20
2019-02-08T15:48:36.624Z,8.90
2019-02-08T15:51:08.662Z,8.80
2019-02-08T15:53:40.538Z,8.60
2019-02-08T15:56:15.908Z,8.60
2019-02-08T15:58:47.818Z,8.60
2019-02-08T16:01:19.848Z,8.50
2019-02-08T16:03:52.195Z,8.50
2019-02-08T16:06:24.185Z,8.50
2019-02-08T16:08:56.138Z,8.50
2019-02-08T16:11:28.060Z,8.60
2019-02-08T16:13:59.935Z,8.50
2019-02-08T16:16:31.866Z,8.60
2019-02-08T16:19:03.745Z,8.50
2019-02-08T16:21:35.661Z,8.30
2019-02-08T16:24:07.860Z,8.30
2019-02-08T16:26:39.788Z,8.10
2019-02-08T16:29:11.675Z,8.10
2019-02-08T16:31:43.571Z,8.00
2019-02-08T16:34:15.463Z,8.00
2019-02-08T16:36:48.071Z,7.90
2019-02-08T16:39:20.003Z,7.90
2019-02-08T16:41:52.822Z,7.70
2019-02-08T16:44:24.775Z,7.60
2019-02-08T16:46:56.671Z,7.50
2019-02-08T16:49:29.522Z,7.60
2019-02-08T16:52:01.456Z,7.50
2019-02-08T16:54:34.104Z,7.50
2019-02-08T16:57:06.807Z,7.30
2019-02-08T16:59:38.792Z,7.10
2019-02-08T17:02:14.117Z,7.00
2019-02-08T17:04:46.330Z,6.80
2019-02-08T17:07:18.307Z,6.50
2019-02-08T17:09:50.493Z,6.30
2019-02-08T17:12:22.458Z,6.30
2019-02-08T17:14:54.341Z,6.30
2019-02-08T17:17:26.230Z,6.30
2019-02-08T17:19:58.088Z,6.30
2019-02-08T17:22:29.988Z,6.20
2019-02-08T17:25:01.899Z,6.00
2019-02-08T17:27:33.802Z,5.90
2019-02-08T17:30:10.227Z,5.80
2019-02-08T17:32:42.110Z,5.90
2019-02-08T17:35:15.784Z,6.10
2019-02-08T17:37:47.664Z,6.10
2019-02-08T17:40:22.800Z,6.10
2019-02-08T17:42:54.666Z,5.90
2019-02-08T17:45:26.874Z,5.80
2019-02-08T17:48:01.576Z,5.70
2019-02-08T17:50:33.477Z,5.70
2019-02-08T17:53:05.375Z,5.80
2019-02-08T17:55:37.267Z,5.80
2019-02-08T17:58:09.139Z,5.90
2019-02-08T18:00:51.219Z,5.90
2019-02-08T18:03:23.325Z,5.80
2019-02-08T18:05:55.329Z,5.70
2019-02-08T18:08:27.194Z,5.80
2019-02-08T18:10:59.090Z,5.70
2019-02-08T18:13:31.015Z,5.60
2019-02-08T18:16:02.897Z,5.40
2019-02-08T18:18:34.747Z,5.30
2019-02-08T18:21:10.672Z,5.40
2019-02-08T18:23:42.532Z,5.30
2019-02-08T18:26:14.446Z,5.40
2019-02-08T18:28:47.217Z,5.50
2019-02-08T18:31:20.395Z,5.50
2019-02-08T18:33:52.361Z,5.40
2019-02-08T18:36:24.310Z,5.30
2019-02-08T18:38:57.322Z,5.40
2019-02-08T18:41:29.278Z,5.40
2019-02-08T18:44:01.138Z,5.30
2019-02-08T18:46:33.096Z,5.30
2019-02-08T18:49:04.981Z,5.20
2019-02-08T18:51:36.974Z,5.20
2019-02-08T18:54:08.978Z,5.30
2019-02-08T18:56:40.906Z,5.20
2019-02-08T18:59:12.789Z,5.20
2019-02-08T19:01:44.883Z,5.20
2019-02-08T19:04:16.827Z,5.30
2019-02-08T19:06:48.741Z,5.40
2019-02-08T19:09:20.603Z,5.50
2019-02-08T19:11:52.513Z,5.70
2019-02-08T19:14:24.397Z,5.70
2019-02-08T19:16:56.298Z,5.70
2019-02-08T19:19:28.169Z,5.60
2019-02-08T19:22:00.067Z,5.60
2019-02-08T19:24:31.951Z,5.50
2019-02-08T19:27:03.859Z,5.30
2019-02-08T19:29:35.602Z,5.10
2019-02-08T19:32:07.513Z,4.90
2019-02-08T19:34:39.392Z,4.90
2019-02-08T19:37:11.301Z,4.90
2019-02-08T19:39:43.176Z,5.00
2019-02-08T19:42:15.091Z,5.00
2019-02-08T19:44:46.976Z,5.00
2019-02-08T19:47:18.877Z,5.10
2019-02-08T19:49:50.773Z,5.10
2019-02-08T19:52:23.671Z,5.20
2019-02-08T19:54:55.560Z,5.10
2019-02-08T19:57:27.469Z,5.10
2019-02-08T19:59:59.444Z,5.00
2019-02-08T20:02:31.353Z,5.00
2019-02-08T20:05:03.353Z,4.90
2019-02-08T20:07:35.262Z,4.80
2019-02-08T20:10:11.352Z,4.70
2019-02-08T20:12:43.260Z,4.70
2019-02-08T20:15:17.226Z,4.70
2019-02-08T20:17:50.571Z,4.60
2019-02-08T20:20:22.645Z,4.60
2019-02-08T20:22:54.550Z,4.60
2019-02-08T20:25:31.944Z,4.60
2019-02-08T20:28:03.842Z,4.50
2019-02-08T20:30:35.831Z,4.40
2019-02-08T20:33:08.272Z,4.20
2019-02-08T20:35:40.246Z,4.10
2019-02-08T20:38:12.191Z,3.90
2019-02-08T20:40:47.766Z,4.00
2019-02-08T20:43:19.679Z,4.10
2019-02-08T20:45:51.622Z,4.20
2019-02-08T20:48:24.647Z,4.10
2019-02-08T20:50:57.139Z,4.20
2019-02-08T20:53:29.122Z,4.10
2019-02-08T20:56:01.256Z,4.10
2019-02-08T20:58:33.272Z,4.20
2019-02-08T21:01:05.467Z,4.10
2019-02-08T21:03:37.379Z,4.20
2019-02-08T21:06:09.253Z,4.10
2019-02-08T21:08:41.883Z,4.00
2019-02-08T21:11:13.828Z,4.00
2019-02-08T21:13:46.686Z,4.00
2019-02-08T21:16:18.758Z,4.00
2019-02-08T21:18:50.945Z,3.90
2019-02-08T21:21:23.238Z,4.00
2019-02-08T21:23:55.167Z,4.00
2019-02-08T21:26:27.041Z,4.00
2019-02-08T21:28:59.531Z,4.00
2019-02-08T21:31:31.579Z,4.00
2019-02-08T21:34:03.492Z,4.00
2019-02-08T21:36:39.108Z,4.00
2019-02-08T21:39:09.843Z,4.10
2019-02-08T21:41:41.717Z,4.10
2019-02-08T21:44:13.695Z,4.00
2019-02-08T21:46:45.588Z,4.00
2019-02-08T21:49:17.490Z,4.10
2019-02-08T21:51:49.367Z,4.10
2019-02-08T21:54:21.302Z,4.10
2019-02-08T21:56:53.174Z,4.10
2019-02-08T21:59:25.096Z,4.10
2019-02-08T22:01:56.959Z,4.10
2019-02-08T22:04:28.855Z,4.10
2019-02-08T22:07:00.932Z,3.90
2019-02-08T22:09:32.838Z,3.80
2019-02-08T22:12:06.264Z,3.70
2019-02-08T22:14:38.235Z,3.80
2019-02-08T22:17:10.115Z,3.80
2019-02-08T22:19:43.650Z,4.00
2019-02-08T22:22:16.766Z,4.10
2019-02-08T22:24:48.675Z,4.10
2019-02-08T22:27:20.572Z,4.20
2019-02-08T22:29:54.491Z,4.10
2019-02-08T22:32:26.365Z,4.10
2019-02-08T22:34:58.273Z,4.10
2019-02-08T22:37:30.531Z,4.00
2019-02-08T22:40:04.252Z,4.00
2019-02-08T22:42:36.202Z,4.00
2019-02-08T22:45:14.086Z,4.10
2019-02-08T22:47:45.964Z,4.10
2019-02-08T22:50:19.254Z,3.90
2019-02-08T22:52:51.934Z,3.70
2019-02-08T22:55:26.160Z,3.60
2019-02-08T22:58:00.242Z,3.50
2019-02-08T23:01:28.353Z,3.50
2019-02-08T23:04:05.719Z,3.60
2019-02-08T23:06:44.566Z,3.70
2019-02-08T23:09:25.125Z,3.70
2019-02-08T23:11:57.126Z,3.80
2019-02-08T23:14:29.029Z,3.80
2019-02-08T23:17:00.905Z,3.70
2019-02-08T23:19:32.789Z,3.50
2019-02-08T23:22:04.758Z,3.50
2019-02-08T23:24:36.663Z,3.50
2019-02-08T23:27:08.540Z,3.50
2019-02-08T23:29:40.436Z,3.40
2019-02-08T23:32:12.301Z,3.50
2019-02-08T23:34:44.919Z,3.50
2019-02-08T23:37:17.001Z,3.50
2019-02-08T23:39:48.895Z,3.50
2019-02-08T23:42:20.866Z,3.50
2019-02-08T23:44:52.827Z,3.50
2019-02-08T23:47:24.698Z,3.60
2019-02-08T23:49:56.600Z,3.60
2019-02-08T23:52:28.479Z,3.60
2019-02-08T23:55:00.929Z,3.60
2019-02-08T23:57:32.837Z,3.60
